createdAt,value
2022-09-23T00:00:32.428Z,2.33
2022-09-23T00:05:34.916Z,3.72
2022-09-23T00:10:38.829Z,3.00
2022-09-23T00:15:40.953Z,1.40
2022-09-23T00:20:43.103Z,3.75
2022-09-23T00:25:45.321Z,2.78
2022-09-23T00:30:47.494Z,2.15
2022-09-23T00:35:49.924Z,3.70
2022-09-23T00:40:52.162Z,2.55
2022-09-23T00:45:54.994Z,2.10
2022-09-23T00:50:57.562Z,1.45
2022-09-23T00:56:04.660Z,2.35
2022-09-23T01:01:07.111Z,2.67
2022-09-23T01:06:10.315Z,5.03
2022-09-23T01:11:36.182Z,3.35
2022-09-23T01:16:50.994Z,4.55
2022-09-23T01:21:57.149Z,2.83
2022-09-23T01:27:20.917Z,2.90
2022-09-23T01:33:08.885Z,2.88
2022-09-23T01:38:26.903Z,3.50
2022-09-23T01:43:49.946Z,3.92
2022-09-23T01:48:55.154Z,3.65
2022-09-23T01:54:02.915Z,3.80
2022-09-23T01:59:17.810Z,3.45
2022-09-23T02:05:00.303Z,3.70
2022-09-23T02:10:14.043Z,7.43
2022-09-23T02:15:23.551Z,3.97
2022-09-23T02:25:56.662Z,4.68
2022-09-23T02:31:22.241Z,3.90
2022-09-23T02:36:33.026Z,4.72
2022-09-23T02:41:41.965Z,3.22
2022-09-23T02:46:45.052Z,5.38
2022-09-23T02:51:47.207Z,7.38
2022-09-23T02:56:49.661Z,5.93
2022-09-23T03:02:26.661Z,5.50
2022-09-23T03:07:56.404Z,7.65
2022-09-23T03:13:38.779Z,6.97
2022-09-23T03:18:47.909Z,7.30
2022-09-23T03:23:51.242Z,10.02
2022-09-23T03:28:54.310Z,9.57
2022-09-23T03:34:01.226Z,11.32
2022-09-23T03:39:08.522Z,16.05
2022-09-23T03:44:12.132Z,11.13
2022-09-23T03:49:24.352Z,8.05
2022-09-23T03:54:29.980Z,8.75
2022-09-23T03:59:32.261Z,11.07
2022-09-23T04:04:37.587Z,8.75
2022-09-23T04:09:39.804Z,10.95
2022-09-23T04:14:42.429Z,9.15
2022-09-23T04:19:45.206Z,10.18
2022-09-23T04:24:47.312Z,8.43
2022-09-23T04:29:49.436Z,14.38
2022-09-23T04:34:51.602Z,16.00
2022-09-23T04:39:54.358Z,17.58
2022-09-23T04:44:56.723Z,17.42
2022-09-23T04:50:00.030Z,10.95
2022-09-23T04:55:02.452Z,11.52
2022-09-23T05:00:05.090Z,19.40
2022-09-23T05:05:07.545Z,16.25
2022-09-23T05:10:09.837Z,18.20
2022-09-23T05:15:13.150Z,23.50
2022-09-23T05:20:15.316Z,22.85
2022-09-23T05:25:17.491Z,21.40
2022-09-23T05:30:19.666Z,21.67
2022-09-23T05:35:21.994Z,14.10
2022-09-23T05:40:24.564Z,14.68
2022-09-23T05:45:27.055Z,9.90
2022-09-23T05:50:29.212Z,16.08
2022-09-23T05:55:31.350Z,15.40
2022-09-23T06:00:33.489Z,18.33
2022-09-23T06:05:35.657Z,15.90
2022-09-23T06:10:43.851Z,13.52
2022-09-23T06:15:46.226Z,14.82
2022-09-23T06:20:48.359Z,12.15
2022-09-23T06:25:50.498Z,27.98
2022-09-23T06:30:58.170Z,27.35
2022-09-23T06:36:01.893Z,19.88
2022-09-23T06:41:04.127Z,15.65
2022-09-23T06:46:08.260Z,18.17
2022-09-23T06:51:13.824Z,24.85
2022-09-23T06:56:17.383Z,29.00
2022-09-23T07:01:19.978Z,31.98
2022-09-23T07:06:22.286Z,37.03
2022-09-23T07:11:24.508Z,35.55
2022-09-23T07:16:26.780Z,24.77
2022-09-23T07:21:28.986Z,34.72
2022-09-23T07:26:34.267Z,48.35
2022-09-23T07:31:39.680Z,41.70
2022-09-23T07:36:42.481Z,33.78
2022-09-23T07:41:44.870Z,44.63
2022-09-23T07:46:47.547Z,45.30
2022-09-23T07:51:49.687Z,46.38
2022-09-23T07:56:51.931Z,37.13
2022-09-23T08:01:55.708Z,29.65
2022-09-23T08:07:00.483Z,27.90
2022-09-23T08:12:02.737Z,35.08
2022-09-23T08:17:08.387Z,35.47
2022-09-23T08:22:12.241Z,36.58
2022-09-23T08:27:14.548Z,34.67
2022-09-23T08:32:16.774Z,29.42
2022-09-23T08:37:18.914Z,29.60
2022-09-23T08:42:30.064Z,37.50
2022-09-23T08:47:53.793Z,27.85
2022-09-23T08:53:04.934Z,24.88
2022-09-23T08:58:35.270Z,27.38
2022-09-23T09:03:49.352Z,26.08
2022-09-23T09:08:57.174Z,23.17
2022-09-23T09:14:22.311Z,21.38
2022-09-23T09:19:57.528Z,17.38
2022-09-23T09:25:14.131Z,20.00
2022-09-23T09:30:18.240Z,25.38
2022-09-23T09:35:42.471Z,30.17
2022-09-23T09:40:48.369Z,29.35
2022-09-23T09:46:18.468Z,20.05
2022-09-23T09:51:22.952Z,21.17
2022-09-23T09:56:44.673Z,17.33
2022-09-23T10:01:47.342Z,21.48
2022-09-23T10:07:14.216Z,25.55
2022-09-23T10:12:21.496Z,25.38
2022-09-23T10:17:25.784Z,24.00
2022-09-23T10:22:32.632Z,22.58
2022-09-23T10:27:36.827Z,21.20
2022-09-23T10:32:45.019Z,29.00
2022-09-23T10:37:50.089Z,28.50
2022-09-23T10:43:25.645Z,23.02
2022-09-23T10:48:45.859Z,26.00
2022-09-23T10:53:59.381Z,23.42
2022-09-23T10:59:33.127Z,24.98
2022-09-23T11:04:51.100Z,29.58
2022-09-23T11:10:44.842Z,23.20
2022-09-23T11:16:12.605Z,20.58
2022-09-23T11:21:24.024Z,16.08
2022-09-23T11:26:46.012Z,17.15
2022-09-23T11:32:27.838Z,11.90
2022-09-23T11:37:38.736Z,8.95
2022-09-23T11:42:59.801Z,9.40
2022-09-23T11:48:14.714Z,9.13
2022-09-23T11:53:49.706Z,8.82
2022-09-23T11:59:39.193Z,7.60
2022-09-23T12:04:55.795Z,6.50
2022-09-23T12:10:06.248Z,9.60
2022-09-23T12:15:11.327Z,4.97
2022-09-23T12:20:21.562Z,7.88
2022-09-23T12:25:23.804Z,10.80
2022-09-23T12:30:30.014Z,11.90
2022-09-23T12:35:41.972Z,7.55
2022-09-23T12:40:44.803Z,10.68
2022-09-23T12:45:48.626Z,9.27
2022-09-23T12:51:02.913Z,10.02
2022-09-23T12:56:20.234Z,4.65
2022-09-23T13:01:24.673Z,10.50
2022-09-23T13:06:39.037Z,4.38
2022-09-23T13:11:44.210Z,4.43
2022-09-23T13:16:47.441Z,7.35
2022-09-23T13:21:50.729Z,8.30
2022-09-23T13:27:02.142Z,10.15
2022-09-23T13:32:05.937Z,6.78
2022-09-23T13:37:25.799Z,6.20
2022-09-23T13:42:30.421Z,5.68
2022-09-23T13:47:36.073Z,5.43
2022-09-23T13:52:38.262Z,5.68
2022-09-23T13:57:40.877Z,3.72
2022-09-23T14:02:43.800Z,5.13
2022-09-23T14:07:46.118Z,6.00
2022-09-23T14:12:50.486Z,3.47
2022-09-23T14:18:06.311Z,3.63
2022-09-23T14:23:14.763Z,8.40
2022-09-23T14:28:19.067Z,10.05
2022-09-23T14:33:32.846Z,3.50
2022-09-23T14:38:50.639Z,8.88
2022-09-23T14:44:00.935Z,4.35
2022-09-23T14:49:12.064Z,5.00
2022-09-23T14:54:26.593Z,5.35
2022-09-23T14:59:37.126Z,2.58
2022-09-23T15:04:39.230Z,9.70
2022-09-23T15:09:42.659Z,6.25
2022-09-23T15:14:50.567Z,3.85
2022-09-23T15:19:56.915Z,3.22
2022-09-23T15:25:32.627Z,2.72
2022-09-23T15:30:36.711Z,2.65
2022-09-23T15:35:45.349Z,3.05
2022-09-23T15:40:48.132Z,4.50
2022-09-23T15:45:57.200Z,3.75
2022-09-23T15:51:04.884Z,4.90
2022-09-23T15:56:07.198Z,7.30
2022-09-23T16:01:20.355Z,4.28
2022-09-23T16:06:24.340Z,8.00
2022-09-23T16:11:34.046Z,2.97
2022-09-23T16:16:36.146Z,3.83
2022-09-23T16:21:43.260Z,7.68
2022-09-23T16:26:48.135Z,5.80
2022-09-23T16:31:50.279Z,5.82
2022-09-23T16:36:52.680Z,11.15
2022-09-23T16:41:54.777Z,6.40
2022-09-23T16:46:57.748Z,5.97
2022-09-23T16:52:01.614Z,6.53
2022-09-23T16:57:03.798Z,11.10
2022-09-23T17:02:28.329Z,10.85
2022-09-23T17:07:31.990Z,8.25
2022-09-23T17:12:35.198Z,6.22
2022-09-23T17:17:37.839Z,8.75
2022-09-23T17:22:41.049Z,9.15
2022-09-23T17:27:43.172Z,12.68
2022-09-23T17:32:45.267Z,7.43
2022-09-23T17:37:47.694Z,8.10
2022-09-23T17:42:50.384Z,9.20
2022-09-23T17:47:54.909Z,10.15
2022-09-23T17:53:00.344Z,17.55
2022-09-23T17:58:02.487Z,13.32
2022-09-23T18:03:04.702Z,10.52
2022-09-23T18:08:06.834Z,7.55
2022-09-23T18:13:09.186Z,7.97
2022-09-23T18:18:11.367Z,5.93
2022-09-23T18:23:13.501Z,5.85
2022-09-23T18:28:15.860Z,7.85
2022-09-23T18:33:18.161Z,8.43
2022-09-23T18:38:20.837Z,7.30
2022-09-23T18:43:25.849Z,6.90
2022-09-23T18:48:48.744Z,5.70
2022-09-23T18:53:50.859Z,9.45
2022-09-23T18:58:55.189Z,7.35
2022-09-23T19:03:58.600Z,8.48
2022-09-23T19:09:00.901Z,14.32
2022-09-23T19:14:06.119Z,8.70
2022-09-23T19:19:09.191Z,12.60
2022-09-23T19:24:15.663Z,11.02
2022-09-23T19:29:22.067Z,12.10
2022-09-23T19:34:26.029Z,13.75
2022-09-23T19:39:31.666Z,9.30
2022-09-23T19:44:37.783Z,7.95
2022-09-23T19:49:39.950Z,17.00
2022-09-23T19:54:42.184Z,6.60
2022-09-23T19:59:45.038Z,6.70
2022-09-23T20:04:47.166Z,2.35
2022-09-23T20:09:49.262Z,6.47
2022-09-23T20:14:53.959Z,3.20
2022-09-23T20:19:56.120Z,1.25
2022-09-23T20:24:59.332Z,6.50
2022-09-23T20:30:02.751Z,6.90
2022-09-23T20:35:05.882Z,2.00
2022-09-23T20:40:10.216Z,8.73
2022-09-23T20:45:12.898Z,3.13
2022-09-23T20:50:15.142Z,4.05
2022-09-23T20:55:18.175Z,9.45
2022-09-23T21:00:20.274Z,3.17
2022-09-23T21:05:23.324Z,6.45
2022-09-23T21:10:25.482Z,20.15
2022-09-23T21:15:28.039Z,15.75
2022-09-23T21:20:30.181Z,7.60
2022-09-23T21:25:35.838Z,10.73
2022-09-23T21:30:38.309Z,8.43
2022-09-23T21:35:40.816Z,5.47
2022-09-23T21:40:58.282Z,2.40
2022-09-23T21:46:02.652Z,5.28
2022-09-23T21:51:08.348Z,8.30
2022-09-23T21:56:18.170Z,3.60
2022-09-23T22:01:23.869Z,9.90
2022-09-23T22:06:28.232Z,7.68
2022-09-23T22:11:51.482Z,9.55
2022-09-23T22:16:57.627Z,8.32
2022-09-23T22:22:00.195Z,9.90
2022-09-23T22:27:02.353Z,8.23
2022-09-23T22:32:25.275Z,9.55
2022-09-23T22:37:36.066Z,20.02
2022-09-23T22:42:39.461Z,13.88
2022-09-23T22:47:45.373Z,15.45
2022-09-23T22:52:48.014Z,9.55
2022-09-23T22:57:51.623Z,9.65
2022-09-23T23:02:54.623Z,6.10
2022-09-23T23:07:57.597Z,14.93
2022-09-23T23:12:59.767Z,8.38
2022-09-23T23:18:01.956Z,15.52
2022-09-23T23:23:04.198Z,13.10
2022-09-23T23:28:06.427Z,11.60
2022-09-23T23:33:08.589Z,11.52
2022-09-23T23:38:13.117Z,14.35
2022-09-23T23:43:15.558Z,9.70
2022-09-23T23:48:21.188Z,7.95
2022-09-23T23:53:24.651Z,30.83
2022-09-23T23:58:27.948Z,5.32
